Time;durP1;ratioP1;P1;durP2;ratioP2;P2;SDS_P1;SDS_P2;PMS_P1;PMS_P2;Temp;Humidity;BMP_temperature;BMP_pressure;BME280_temperature;BME280_humidity;BME280_pressure;Samples;Min_cycle;Max_cycle;Signal;HPM_P1;HPM_P2
2023/02/02 00:00:47;;;;;;;7.77;1.73;;;8.90;99.90;;;;;;5050441;28;20775;-58
2023/02/02 00:03:14;;;;;;;7.53;2.30;;;8.90;99.90;;;;;;5050527;28;20210;-57
2023/02/02 00:05:45;;;;;;;6.23;2.00;;;8.80;99.90;;;;;;5050763;28;20274;-57
2023/02/02 00:08:12;;;;;;;8.23;2.40;;;8.80;99.90;;;;;;5050468;28;20673;-57
2023/02/02 00:10:40;;;;;;;6.57;2.00;;;8.70;99.90;;;;;;5050370;28;20225;-58
2023/02/02 00:13:07;;;;;;;9.37;2.47;;;8.80;99.90;;;;;;5050320;28;20205;-58
2023/02/02 00:15:34;;;;;;;5.93;2.20;;;8.70;99.90;;;;;;5050314;28;20201;-58
2023/02/02 00:18:00;;;;;;;4.13;1.63;;;8.70;99.90;;;;;;5050253;28;20216;-58
2023/02/02 00:20:28;;;;;;;6.63;1.87;;;8.70;99.90;;;;;;5050461;28;20233;-58
2023/02/02 00:22:55;;;;;;;6.00;1.60;;;8.70;99.90;;;;;;5050485;28;20202;-60
2023/02/02 00:25:21;;;;;;;7.75;2.38;;;8.70;99.90;;;;;;5028678;28;20488;-63
2023/02/02 00:27:49;;;;;;;5.30;2.23;;;8.80;99.90;;;;;;5043570;28;20209;-62
2023/02/02 00:30:16;;;;;;;7.33;1.97;;;8.80;99.90;;;;;;5049417;28;20256;-60
2023/02/02 00:32:43;;;;;;;6.67;1.90;;;8.80;99.90;;;;;;5048955;28;20213;-60
2023/02/02 00:35:10;;;;;;;6.27;2.00;;;8.90;99.90;;;;;;5027882;28;20201;-61
2023/02/02 00:37:37;;;;;;;5.93;1.83;;;9.00;99.90;;;;;;5040858;28;20638;-59
2023/02/02 00:40:04;;;;;;;6.27;1.67;;;9.00;99.90;;;;;;5049917;28;20229;-58
2023/02/02 00:42:31;;;;;;;5.47;1.90;;;8.90;99.90;;;;;;5049786;28;20221;-58
2023/02/02 00:45:16;;;;;;;8.63;2.03;;;8.90;99.90;;;;;;5050240;28;20206;-59
2023/02/02 00:47:44;;;;;;;4.80;1.80;;;8.90;99.90;;;;;;5050056;28;20216;-59
2023/02/02 00:50:13;;;;;;;7.70;2.23;;;8.90;99.90;;;;;;5052138;28;20320;-59
2023/02/02 00:52:39;;;;;;;7.13;2.10;;;8.90;99.90;;;;;;5053766;28;20222;-59
2023/02/02 00:55:07;;;;;;;6.63;1.97;;;8.90;99.90;;;;;;5053975;28;20209;-58
2023/02/02 00:57:34;;;;;;;6.30;1.63;;;8.90;99.90;;;;;;5053711;28;20206;-59
2023/02/02 01:00:02;;;;;;;6.63;1.90;;;8.90;99.90;;;;;;5054039;28;20264;-58
2023/02/02 01:02:29;;;;;;;5.37;2.00;;;8.80;99.90;;;;;;5053932;28;20618;-59
2023/02/02 01:04:56;;;;;;;7.43;2.20;;;8.80;99.90;;;;;;5053743;28;20347;-61
2023/02/02 01:07:23;;;;;;;7.63;1.83;;;8.80;99.90;;;;;;5053427;28;20556;-59
2023/02/02 01:09:50;;;;;;;5.27;1.93;;;8.70;99.90;;;;;;5053524;28;20221;-59
2023/02/02 01:12:16;;;;;;;8.40;2.10;;;8.80;99.90;;;;;;5053614;28;20673;-58
2023/02/02 01:14:43;;;;;;;5.50;1.87;;;8.80;99.90;;;;;;5053312;28;20584;-58
2023/02/02 01:17:11;;;;;;;5.17;1.60;;;8.80;99.90;;;;;;5053192;28;20665;-58
2023/02/02 01:19:38;;;;;;;7.07;2.37;;;8.80;99.90;;;;;;5053502;28;20320;-57
2023/02/02 01:22:05;;;;;;;8.17;2.50;;;8.80;99.90;;;;;;5053112;28;20210;-59
2023/02/02 01:24:31;;;;;;;4.60;1.90;;;8.70;99.90;;;;;;5053249;28;20205;-58
2023/02/02 01:26:58;;;;;;;5.23;1.97;;;8.70;99.90;;;;;;5053020;28;20216;-58
2023/02/02 01:29:25;;;;;;;4.97;2.07;;;8.70;99.90;;;;;;5052875;28;20249;-58
2023/02/02 01:31:52;;;;;;;3.47;1.63;;;8.70;99.90;;;;;;5052908;28;20688;-59
2023/02/02 01:34:20;;;;;;;7.80;2.17;;;8.70;99.90;;;;;;5053035;28;20267;-59
2023/02/02 01:36:47;;;;;;;5.50;1.77;;;8.70;99.90;;;;;;5052600;28;20216;-59
2023/02/02 01:39:13;;;;;;;7.10;1.87;;;8.70;99.90;;;;;;5052773;28;20237;-60
2023/02/02 01:41:41;;;;;;;6.83;1.83;;;8.70;99.90;;;;;;5052943;28;20220;-59
2023/02/02 01:44:41;;;;;;;4.63;1.67;;;8.60;99.90;;;;;;5052791;28;20237;-59
2023/02/02 01:47:08;;;;;;;5.23;1.73;;;8.60;99.90;;;;;;5052381;28;20433;-58
2023/02/02 01:49:37;;;;;;;5.60;1.70;;;8.60;99.90;;;;;;5052504;28;20226;-59
2023/02/02 01:52:04;;;;;;;6.23;1.93;;;8.60;99.90;;;;;;5052679;28;20221;-58
2023/02/02 01:54:36;;;;;;;8.63;1.93;;;8.60;99.90;;;;;;5052701;28;20531;-59
2023/02/02 01:57:15;;;;;;;6.90;2.40;;;8.50;99.90;;;;;;5052392;28;20202;-58
2023/02/02 01:59:44;;;;;;;6.37;2.17;;;8.60;99.90;;;;;;5052207;28;20233;-58
2023/02/02 02:02:12;;;;;;;5.97;2.20;;;8.60;99.90;;;;;;5051725;28;20256;-58
2023/02/02 02:04:41;;;;;;;4.50;1.77;;;8.50;99.90;;;;;;5052574;28;20296;-58
2023/02/02 02:07:08;;;;;;;6.97;1.97;;;8.40;99.90;;;;;;5052278;28;20214;-58
2023/02/02 02:09:35;;;;;;;10.13;2.50;;;8.40;99.90;;;;;;5052324;28;20229;-58
2023/02/02 02:12:02;;;;;;;5.70;1.90;;;8.40;99.90;;;;;;5052114;28;20700;-59
2023/02/02 02:17:24;;;;;;;9.17;2.73;;;8.30;99.90;;;;;;5051895;28;20247;-57
2023/02/02 02:26:36;;;;;;;7.10;1.87;;;8.40;99.90;;;;;;5051841;28;20252;-58
2023/02/02 02:29:47;;;;;;;10.47;2.07;;;8.50;99.90;;;;;;5052191;28;20291;-59
2023/02/02 02:32:31;;;;;;;8.53;2.97;;;8.50;99.90;;;;;;5052426;28;20210;-57
2023/02/02 02:35:03;;;;;;;6.67;2.00;;;8.50;99.90;;;;;;5051721;28;20229;-58
2023/02/02 02:37:36;;;;;;;10.37;2.40;;;8.50;99.90;;;;;;5051805;28;20210;-58
2023/02/02 02:40:10;;;;;;;8.43;2.13;;;8.60;99.90;;;;;;5051959;28;20229;-58
2023/02/02 02:42:40;;;;;;;11.43;2.23;;;8.60;99.90;;;;;;5051762;28;20266;-57
2023/02/02 02:45:09;;;;;;;8.67;2.17;;;8.50;99.90;;;;;;5051665;28;20324;-58
2023/02/02 02:47:38;;;;;;;7.90;1.80;;;8.50;99.90;;;;;;5051350;28;20213;-58
2023/02/02 02:50:05;;;;;;;9.03;2.10;;;8.40;99.90;;;;;;5051735;28;20228;-58
2023/02/02 02:52:32;;;;;;;9.97;2.80;;;8.40;99.90;;;;;;5051575;28;20209;-58
2023/02/02 02:55:00;;;;;;;11.27;2.53;;;8.50;99.90;;;;;;5051529;28;20331;-57
2023/02/02 02:57:39;;;;;;;6.87;1.90;;;8.40;99.90;;;;;;5051227;28;20255;-57
2023/02/02 03:00:24;;;;;;;6.20;1.93;;;8.40;99.90;;;;;;5051222;28;20225;-58
2023/02/02 03:03:00;;;;;;;7.53;2.27;;;8.40;99.90;;;;;;5051328;28;20209;-58
2023/02/02 03:05:33;;;;;;;7.33;2.10;;;8.50;99.90;;;;;;5051370;28;20669;-57
2023/02/02 03:08:07;;;;;;;7.67;2.23;;;8.60;99.90;;;;;;5050958;28;20210;-58
2023/02/02 03:10:35;;;;;;;9.47;1.90;;;8.70;99.90;;;;;;5050992;28;20323;-58
2023/02/02 03:13:08;;;;;;;5.93;1.70;;;8.50;99.90;;;;;;5051104;28;20639;-58
2023/02/02 03:15:34;;;;;;;6.47;2.10;;;8.40;99.90;;;;;;5051200;28;20213;-57
2023/02/02 03:18:03;;;;;;;7.27;2.03;;;8.40;99.90;;;;;;5051119;28;20275;-57
2023/02/02 03:20:30;;;;;;;8.67;2.53;;;8.40;99.90;;;;;;5050615;28;20693;-58
2023/02/02 03:22:56;;;;;;;7.73;2.27;;;8.40;99.90;;;;;;5050955;28;20206;-57
2023/02/02 03:25:23;;;;;;;8.77;2.30;;;8.50;99.90;;;;;;5051140;28;20206;-58
2023/02/02 03:27:50;;;;;;;5.13;2.20;;;8.50;99.90;;;;;;5050839;28;20205;-57
2023/02/02 03:30:17;;;;;;;8.23;2.40;;;8.60;99.90;;;;;;5050809;28;20233;-57
2023/02/02 03:32:45;;;;;;;8.23;2.20;;;8.50;99.90;;;;;;5050907;28;20209;-57
2023/02/02 03:35:13;;;;;;;6.63;1.73;;;8.60;99.90;;;;;;5050831;28;20585;-58
2023/02/02 03:37:39;;;;;;;8.97;2.00;;;8.60;99.90;;;;;;5050564;28;20583;-58
2023/02/02 03:40:07;;;;;;;8.47;2.30;;;8.50;99.90;;;;;;5050441;28;20229;-57
2023/02/02 03:42:34;;;;;;;11.10;1.90;;;8.50;99.90;;;;;;5050923;28;20330;-57
2023/02/02 03:45:00;;;;;;;6.73;2.10;;;8.50;99.90;;;;;;5050705;28;20205;-58
2023/02/02 03:47:28;;;;;;;8.57;2.00;;;8.50;99.90;;;;;;5050491;28;20582;-58
2023/02/02 03:49:55;;;;;;;8.00;2.27;;;8.60;99.90;;;;;;5050590;28;20291;-58
2023/02/02 03:52:23;;;;;;;8.60;2.20;;;8.60;99.90;;;;;;5050979;28;20336;-58
2023/02/02 03:54:51;;;;;;;7.57;1.93;;;8.70;99.90;;;;;;5050768;28;20248;-58
2023/02/02 03:57:18;;;;;;;6.37;2.00;;;8.60;99.90;;;;;;5050391;28;20631;-57
2023/02/02 03:59:44;;;;;;;4.93;1.80;;;8.70;99.90;;;;;;5050220;28;20225;-57
2023/02/02 04:02:11;;;;;;;7.73;2.10;;;8.70;99.90;;;;;;5050370;28;20201;-58
2023/02/02 04:04:38;;;;;;;7.80;1.80;;;8.60;99.90;;;;;;5050506;28;20210;-57
2023/02/02 04:07:04;;;;;;;5.87;1.87;;;8.80;99.90;;;;;;5050264;28;20288;-57
2023/02/02 04:09:32;;;;;;;7.07;2.30;;;8.80;99.90;;;;;;5050266;28;20228;-58
2023/02/02 04:11:59;;;;;;;5.87;2.00;;;8.70;99.90;;;;;;5050915;28;20235;-58
2023/02/02 04:14:26;;;;;;;6.60;2.10;;;8.60;99.90;;;;;;5050475;28;20643;-58
2023/02/02 04:16:53;;;;;;;8.33;1.80;;;8.60;99.90;;;;;;5050137;28;20229;-57
2023/02/02 04:19:19;;;;;;;7.43;2.30;;;8.60;99.90;;;;;;5050196;28;20221;-58
2023/02/02 04:21:46;;;;;;;10.17;2.03;;;8.60;99.90;;;;;;5050728;28;20213;-57
2023/02/02 04:24:14;;;;;;;6.47;2.10;;;8.60;99.90;;;;;;5051006;28;20210;-58
2023/02/02 04:26:42;;;;;;;7.83;2.13;;;8.70;99.90;;;;;;5054139;28;20197;-58
2023/02/02 04:29:09;;;;;;;8.17;2.40;;;8.70;99.90;;;;;;5054284;28;20229;-57
2023/02/02 04:31:36;;;;;;;6.13;2.20;;;8.70;99.90;;;;;;5054135;28;20723;-58
2023/02/02 04:34:03;;;;;;;5.73;1.80;;;8.60;99.90;;;;;;5054128;28;20220;-57
2023/02/02 04:36:29;;;;;;;8.40;2.30;;;8.60;99.90;;;;;;5054247;28;20256;-57
2023/02/02 04:38:56;;;;;;;7.53;2.10;;;8.60;99.90;;;;;;5053997;28;20341;-57
2023/02/02 04:41:24;;;;;;;8.77;2.83;;;8.60;99.90;;;;;;5053996;28;20235;-58
2023/02/02 04:43:52;;;;;;;6.73;2.07;;;8.70;99.90;;;;;;5054242;28;20206;-57
2023/02/02 04:46:19;;;;;;;5.90;1.93;;;8.80;99.90;;;;;;5053777;28;20209;-57
2023/02/02 04:48:48;;;;;;;8.20;2.20;;;8.80;99.90;;;;;;5053986;28;20252;-58
2023/02/02 04:51:17;;;;;;;9.53;2.43;;;8.70;99.90;;;;;;5053974;28;20641;-58
2023/02/02 04:53:45;;;;;;;7.57;2.03;;;8.70;99.90;;;;;;5053930;28;20202;-57
2023/02/02 04:56:14;;;;;;;14.80;2.63;;;8.70;99.90;;;;;;5053674;28;20237;-58
2023/02/02 04:58:42;;;;;;;8.93;2.17;;;8.60;99.90;;;;;;5053872;28;20235;-59
2023/02/02 05:01:11;;;;;;;10.13;2.53;;;8.60;99.90;;;;;;5053931;28;20225;-58
2023/02/02 05:03:38;;;;;;;7.37;2.10;;;8.60;99.90;;;;;;5053812;28;20256;-57
2023/02/02 05:06:06;;;;;;;6.53;2.10;;;8.70;99.90;;;;;;5053558;28;20212;-58
2023/02/02 05:08:33;;;;;;;6.30;1.90;;;8.90;99.90;;;;;;5053661;28;20209;-57
2023/02/02 05:11:00;;;;;;;6.33;2.33;;;8.80;99.90;;;;;;5053657;28;20225;-58
2023/02/02 05:13:27;;;;;;;11.17;2.53;;;8.80;99.90;;;;;;5053482;28;20293;-58
2023/02/02 05:15:54;;;;;;;4.83;2.13;;;8.80;99.90;;;;;;5053329;28;20209;-58
2023/02/02 05:18:24;;;;;;;8.93;2.40;;;8.80;99.90;;;;;;5053413;28;20296;-58
2023/02/02 05:20:51;;;;;;;7.17;2.53;;;8.70;99.90;;;;;;5053247;28;20222;-58
2023/02/02 05:23:17;;;;;;;8.73;2.03;;;8.70;99.90;;;;;;5053333;28;20201;-58
2023/02/02 05:25:44;;;;;;;11.13;2.70;;;8.70;99.90;;;;;;5053012;28;20212;-58
2023/02/02 05:28:11;;;;;;;9.07;2.30;;;8.70;99.90;;;;;;5052761;28;20212;-57
2023/02/02 05:30:39;;;;;;;11.90;2.97;;;8.70;99.90;;;;;;5052887;28;20259;-57
2023/02/02 05:33:06;;;;;;;10.70;2.27;;;8.70;99.90;;;;;;5053188;28;20206;-59
2023/02/02 05:35:34;;;;;;;11.63;2.60;;;8.70;99.90;;;;;;5052436;28;20210;-58
2023/02/02 05:38:01;;;;;;;10.23;2.40;;;8.70;99.90;;;;;;5052096;28;20696;-57
2023/02/02 05:40:27;;;;;;;9.23;2.40;;;8.70;99.90;;;;;;5052909;28;20340;-58
2023/02/02 05:42:54;;;;;;;9.70;2.53;;;8.70;99.90;;;;;;5052944;28;20214;-57
2023/02/02 05:45:21;;;;;;;7.37;2.37;;;8.70;99.90;;;;;;5052692;28;20674;-58
2023/02/02 05:47:48;;;;;;;7.60;2.53;;;8.70;99.90;;;;;;5052592;28;20206;-58
2023/02/02 05:50:15;;;;;;;9.40;2.53;;;8.70;99.90;;;;;;5052713;28;20645;-58
2023/02/02 05:52:44;;;;;;;10.27;2.77;;;8.70;99.90;;;;;;5052581;28;20590;-58
2023/02/02 05:55:11;;;;;;;6.23;2.10;;;8.70;99.90;;;;;;5053200;28;20213;-57
2023/02/02 05:57:38;;;;;;;11.67;2.60;;;8.60;99.90;;;;;;5052555;28;20209;-58
2023/02/02 06:00:06;;;;;;;10.73;2.70;;;8.60;99.90;;;;;;5052614;28;20233;-58
2023/02/02 06:02:33;;;;;;;6.87;2.40;;;8.60;99.90;;;;;;5052620;28;20239;-58
2023/02/02 06:04:59;;;;;;;10.33;3.40;;;8.60;99.90;;;;;;5052559;28;20212;-58
2023/02/02 06:07:26;;;;;;;8.17;2.60;;;8.70;99.90;;;;;;5053046;28;20206;-58
2023/02/02 06:09:54;;;;;;;10.13;2.73;;;8.80;99.90;;;;;;5052471;28;20658;-59
2023/02/02 06:12:21;;;;;;;9.63;2.60;;;8.90;99.90;;;;;;5052069;28;20201;-59
2023/02/02 06:14:48;;;;;;;11.33;2.57;;;8.90;99.90;;;;;;5051469;28;20292;-58
2023/02/02 06:17:14;;;;;;;12.27;3.70;;;8.80;99.90;;;;;;5052010;28;20278;-58
2023/02/02 06:19:41;;;;;;;10.17;3.10;;;8.70;99.90;;;;;;5052984;28;20233;-58
2023/02/02 06:22:08;;;;;;;7.40;2.47;;;8.70;99.90;;;;;;5052057;28;20659;-58
2023/02/02 06:24:34;;;;;;;10.73;3.10;;;8.80;99.90;;;;;;5052188;28;20283;-58
2023/02/02 06:27:03;;;;;;;11.23;2.60;;;8.80;99.90;;;;;;5051959;28;20251;-58
2023/02/02 06:29:29;;;;;;;10.57;3.00;;;8.80;99.90;;;;;;5051939;28;20697;-58
2023/02/02 06:31:56;;;;;;;10.83;2.70;;;8.80;99.90;;;;;;5052118;28;20586;-58
2023/02/02 06:34:23;;;;;;;8.97;2.87;;;8.70;99.90;;;;;;5051679;28;20599;-59
2023/02/02 06:36:49;;;;;;;11.47;2.70;;;8.70;99.90;;;;;;5051677;28;20763;-59
2023/02/02 06:39:16;;;;;;;6.97;2.33;;;8.80;99.90;;;;;;5051614;28;20645;-58
2023/02/02 06:41:45;;;;;;;8.93;2.37;;;8.80;99.90;;;;;;5051799;28;20260;-58
2023/02/02 06:44:14;;;;;;;7.53;2.70;;;8.90;99.90;;;;;;5051558;28;20236;-58
2023/02/02 06:46:41;;;;;;;12.17;2.80;;;8.90;99.90;;;;;;5051298;28;20205;-59
2023/02/02 06:49:07;;;;;;;11.47;3.27;;;8.90;99.90;;;;;;5051112;28;20402;-58
2023/02/02 06:51:34;;;;;;;8.17;2.30;;;8.80;99.90;;;;;;5051461;28;20216;-58
2023/02/02 06:54:02;;;;;;;14.80;3.00;;;8.80;99.90;;;;;;5051695;28;20213;-58
2023/02/02 06:56:29;;;;;;;9.47;2.50;;;8.80;99.90;;;;;;5051380;28;20205;-58
2023/02/02 06:58:56;;;;;;;9.33;3.27;;;8.80;99.90;;;;;;5051115;28;20232;-59
2023/02/02 07:01:24;;;;;;;8.00;2.80;;;8.80;99.90;;;;;;5051077;28;20229;-58
2023/02/02 07:03:52;;;;;;;9.40;2.40;;;8.80;99.90;;;;;;5051033;28;20576;-58
2023/02/02 07:06:21;;;;;;;11.60;3.20;;;8.90;99.90;;;;;;5050922;28;20223;-58
2023/02/02 07:08:49;;;;;;;8.63;2.70;;;8.90;99.90;;;;;;5051289;28;20296;-58
2023/02/02 07:11:16;;;;;;;6.20;2.33;;;8.90;99.90;;;;;;5051405;28;20198;-59
2023/02/02 07:13:44;;;;;;;8.17;2.30;;;8.90;99.90;;;;;;5051232;28;20284;-58
2023/02/02 07:16:12;;;;;;;7.30;2.40;;;9.00;99.90;;;;;;5050685;28;20748;-58
2023/02/02 07:18:42;;;;;;;7.33;2.00;;;8.90;99.90;;;;;;5051004;28;20300;-58
2023/02/02 07:21:15;;;;;;;6.43;2.30;;;8.90;99.90;;;;;;5050960;28;20631;-58
2023/02/02 07:23:41;;;;;;;11.50;2.50;;;9.00;99.90;;;;;;5051208;28;20236;-58
2023/02/02 07:26:09;;;;;;;6.97;2.00;;;9.10;99.90;;;;;;5050695;28;20202;-58
2023/02/02 07:28:36;;;;;;;6.50;2.50;;;9.10;99.90;;;;;;5050689;28;20260;-59
2023/02/02 07:31:13;;;;;;;6.37;2.60;;;9.10;99.90;;;;;;5051122;28;20205;-58
2023/02/02 07:33:42;;;;;;;6.03;2.10;;;9.10;99.90;;;;;;5050796;28;20201;-59
2023/02/02 07:36:09;;;;;;;8.83;2.30;;;9.00;99.90;;;;;;5050421;28;20296;-59
2023/02/02 07:38:36;;;;;;;7.00;2.53;;;9.00;99.90;;;;;;5050894;28;20291;-59
2023/02/02 07:41:03;;;;;;;5.80;2.43;;;9.10;99.90;;;;;;5050443;28;20232;-59
2023/02/02 07:43:30;;;;;;;5.27;2.10;;;9.20;99.90;;;;;;5050973;28;20201;-59
2023/02/02 07:46:00;;;;;;;5.40;1.90;;;9.20;99.90;;;;;;5050450;28;20259;-59
2023/02/02 07:48:27;;;;;;;6.67;2.03;;;9.20;99.90;;;;;;5050323;28;20213;-58
2023/02/02 07:50:58;;;;;;;5.60;1.77;;;9.20;99.90;;;;;;5050256;28;20731;-59
2023/02/02 07:53:25;;;;;;;16.07;9.43;;;9.30;99.90;;;;;;5050514;28;20682;-58
2023/02/02 07:55:52;;;;;;;6.07;2.40;;;9.20;99.90;;;;;;5050492;28;20214;-59
2023/02/02 07:58:18;;;;;;;7.67;2.23;;;9.20;99.90;;;;;;5048902;28;20228;-56
2023/02/02 08:00:45;;;;;;;6.35;2.13;;;9.20;99.90;;;;;;5031188;28;20453;-55
2023/02/02 08:03:12;;;;;;;8.27;2.70;;;9.20;99.90;;;;;;5048621;28;20201;-55
2023/02/02 08:05:39;;;;;;;7.40;2.10;;;9.10;99.90;;;;;;5053835;28;20235;-57
2023/02/02 08:08:07;;;;;;;5.10;1.77;;;9.20;99.90;;;;;;5053385;28;20221;-56
2023/02/02 08:10:33;;;;;;;6.23;2.20;;;9.10;99.90;;;;;;5053530;28;20232;-55
2023/02/02 08:13:00;;;;;;;7.63;1.87;;;9.10;99.90;;;;;;5054015;28;20263;-56
2023/02/02 08:15:27;;;;;;;6.27;2.20;;;9.20;99.90;;;;;;5053658;28;20216;-58
2023/02/02 08:17:53;;;;;;;7.57;2.00;;;9.40;99.90;;;;;;5053487;28;20213;-59
2023/02/02 08:20:20;;;;;;;6.13;1.90;;;9.50;99.90;;;;;;5053037;28;20274;-58
2023/02/02 08:22:47;;;;;;;6.63;1.90;;;9.50;99.90;;;;;;5053348;28;20709;-58
2023/02/02 08:25:15;;;;;;;14.57;8.80;;;9.60;99.90;;;;;;5053593;28;20636;-61
2023/02/02 08:27:41;;;;;;;6.30;2.20;;;9.60;99.90;;;;;;5053314;28;20202;-59
2023/02/02 08:30:10;;;;;;;7.87;2.40;;;9.50;99.90;;;;;;5053778;28;20735;-56
2023/02/02 08:32:36;;;;;;;9.63;2.23;;;9.50;99.90;;;;;;5053093;28;20213;-56
2023/02/02 08:35:03;;;;;;;6.57;2.13;;;9.50;99.90;;;;;;5053631;28;20205;-57
2023/02/02 08:37:30;;;;;;;6.43;2.60;;;9.50;99.90;;;;;;5052831;28;20209;-56
2023/02/02 08:39:56;;;;;;;10.37;2.33;;;9.50;99.90;;;;;;5053126;28;20225;-58
2023/02/02 08:42:25;;;;;;;8.00;3.07;;;9.60;99.90;;;;;;5052997;28;20233;-57
2023/02/02 08:44:51;;;;;;;9.07;2.47;;;9.50;99.90;;;;;;5052977;28;20672;-57
2023/02/02 08:47:18;;;;;;;8.93;2.47;;;9.40;99.90;;;;;;5052616;28;20673;-56
2023/02/02 08:49:45;;;;;;;7.37;2.33;;;9.40;99.90;;;;;;5052853;28;20226;-56
2023/02/02 08:52:11;;;;;;;9.80;2.53;;;9.20;99.90;;;;;;5052951;28;20678;-56
2023/02/02 08:54:38;;;;;;;9.93;2.63;;;9.20;99.90;;;;;;5053102;28;20209;-57
2023/02/02 08:57:05;;;;;;;7.33;2.30;;;9.20;99.90;;;;;;5052718;28;20209;-57
2023/02/02 08:59:33;;;;;;;9.27;3.27;;;9.10;99.90;;;;;;5053538;28;20302;-58
2023/02/02 09:01:59;;;;;;;8.30;2.50;;;9.10;99.90;;;;;;5053537;28;20279;-58
2023/02/02 09:04:26;;;;;;;5.60;2.13;;;9.10;99.90;;;;;;5053563;28;20209;-56
2023/02/02 09:06:53;;;;;;;5.90;2.43;;;9.10;99.90;;;;;;5053122;28;20213;-59
2023/02/02 09:09:19;;;;;;;10.50;2.97;;;9.00;99.90;;;;;;5053150;28;20230;-59
2023/02/02 09:11:46;;;;;;;8.13;3.57;;;9.10;99.90;;;;;;5052967;28;20199;-59
2023/02/02 09:14:14;;;;;;;7.30;2.23;;;9.00;99.90;;;;;;5053635;28;20604;-57
2023/02/02 09:16:42;;;;;;;7.07;2.73;;;9.10;99.90;;;;;;5052769;28;20210;-57
2023/02/02 09:19:10;;;;;;;10.13;2.70;;;9.10;99.90;;;;;;5052533;28;20225;-57
2023/02/02 09:21:37;;;;;;;6.60;2.30;;;9.10;99.90;;;;;;5052722;28;20225;-58
2023/02/02 09:24:08;;;;;;;9.97;2.73;;;9.00;99.90;;;;;;5053081;28;20591;-57
2023/02/02 09:26:34;;;;;;;7.73;2.63;;;9.00;99.90;;;;;;5052799;28;20220;-58
2023/02/02 09:29:03;;;;;;;8.97;4.30;;;8.90;99.90;;;;;;5053163;28;20233;-57
2023/02/02 09:31:32;;;;;;;9.97;3.00;;;8.90;99.90;;;;;;5052524;28;20465;-57
2023/02/02 09:34:02;;;;;;;5.73;2.57;;;8.90;99.90;;;;;;5052953;28;20202;-62
2023/02/02 09:36:30;;;;;;;12.13;3.03;;;9.00;99.90;;;;;;5052935;28;20259;-59
2023/02/02 09:38:56;;;;;;;10.27;2.87;;;9.10;99.90;;;;;;5052833;28;20760;-59
2023/02/02 09:41:56;;;;;;;10.17;2.90;;;9.10;99.90;;;;;;5052069;28;20538;-58
2023/02/02 09:44:38;;;;;;;6.93;2.70;;;9.20;99.90;;;;;;5051903;28;20643;-57
2023/02/02 09:47:16;;;;;;;11.07;2.93;;;9.10;99.90;;;;;;5051818;28;20465;-57
2023/02/02 09:49:55;;;;;;;32.20;21.23;;;9.10;99.90;;;;;;5051300;28;20221;-61
2023/02/02 09:52:28;;;;;;;8.80;3.33;;;9.10;99.90;;;;;;5032264;28;20209;-56
2023/02/02 09:54:59;;;;;;;8.73;2.93;;;9.40;99.90;;;;;;5043603;28;20218;-63
2023/02/02 09:57:32;;;;;;;12.17;3.03;;;9.00;99.90;;;;;;5051132;28;20209;-60
2023/02/02 09:59:59;;;;;;;15.50;3.93;;;9.00;99.90;;;;;;5051649;28;20771;-60
2023/02/02 10:02:31;;;;;;;10.77;3.23;;;9.00;99.90;;;;;;5050985;28;20697;-59
2023/02/02 10:05:07;;;;;;;8.53;2.80;;;9.10;99.90;;;;;;5050592;28;20478;-60
2023/02/02 10:07:39;;;;;;;8.47;3.10;;;9.10;99.90;;;;;;5051418;28;20205;-60
2023/02/02 10:10:13;;;;;;;10.07;3.10;;;9.20;99.90;;;;;;5051225;28;20371;-65
2023/02/02 10:12:46;;;;;;;9.60;2.83;;;9.20;99.90;;;;;;5052509;28;20228;-57
2023/02/02 10:15:19;;;;;;;6.00;2.40;;;9.30;99.90;;;;;;5052173;28;20206;-57
2023/02/02 10:17:51;;;;;;;8.33;3.00;;;9.10;99.90;;;;;;5052352;28;20205;-56
2023/02/02 10:20:38;;;;;;;8.67;3.13;;;9.00;99.90;;;;;;5052350;28;20640;-56
2023/02/02 10:23:13;;;;;;;12.93;3.80;;;9.00;99.90;;;;;;5051516;28;20286;-56
2023/02/02 10:25:48;;;;;;;10.50;3.17;;;9.00;99.90;;;;;;5052357;28;20205;-56
2023/02/02 10:28:19;;;;;;;10.37;3.00;;;9.00;99.90;;;;;;5052431;28;20213;-56
2023/02/02 10:30:49;;;;;;;8.93;3.00;;;8.90;99.90;;;;;;5052027;28;20237;-56
2023/02/02 10:33:25;;;;;;;7.83;2.57;;;9.00;99.90;;;;;;5052349;28;20206;-56
2023/02/02 10:36:00;;;;;;;9.30;2.90;;;9.00;99.90;;;;;;5052194;28;20212;-57
2023/02/02 10:38:37;;;;;;;10.20;3.23;;;8.90;99.90;;;;;;5051915;28;20747;-57
2023/02/02 10:41:12;;;;;;;7.87;2.70;;;9.00;99.90;;;;;;5052221;28;20209;-57
2023/02/02 10:44:02;;;;;;;10.97;3.27;;;9.10;99.90;;;;;;5051858;28;20274;-57
2023/02/02 10:46:33;;;;;;;11.80;3.30;;;9.30;99.90;;;;;;5051507;28;20213;-57
2023/02/02 10:49:21;;;;;;;11.03;3.43;;;9.40;99.90;;;;;;5051581;28;20252;-57
2023/02/02 10:51:56;;;;;;;6.43;2.57;;;9.50;99.90;;;;;;5051615;28;20214;-57
2023/02/02 10:54:48;;;;;;;8.83;3.10;;;9.50;99.90;;;;;;5051736;28;20205;-57
2023/02/02 10:57:24;;;;;;;9.83;3.00;;;9.50;99.90;;;;;;5051329;28;20686;-57
2023/02/02 11:00:01;;;;;;;11.70;3.13;;;9.50;99.90;;;;;;5051513;28;20291;-56
2023/02/02 11:02:28;;;;;;;8.67;2.47;;;9.40;99.90;;;;;;5051538;28;20291;-57
2023/02/02 11:07:41;;;;;;;5.70;2.20;;;9.40;99.90;;;;;;5051163;28;20681;-56
2023/02/02 11:10:08;;;;;;;7.90;2.57;;;9.30;99.90;;;;;;5051383;28;20226;-57
2023/02/02 11:12:40;;;;;;;9.93;2.57;;;9.40;99.90;;;;;;5051363;28;20198;-57
2023/02/02 11:15:22;;;;;;;9.87;2.63;;;9.40;99.90;;;;;;5051190;28;20258;-56
2023/02/02 11:17:48;;;;;;;12.53;4.57;;;9.40;99.90;;;;;;5050692;28;20209;-56
2023/02/02 11:20:24;;;;;;;7.43;2.47;;;9.40;99.90;;;;;;5051121;28;20283;-55
2023/02/02 11:23:00;;;;;;;5.67;2.17;;;9.40;99.90;;;;;;5051322;28;20232;-58
2023/02/02 11:25:32;;;;;;;9.67;2.40;;;9.40;99.90;;;;;;5051231;28;20240;-57
2023/02/02 11:28:01;;;;;;;5.93;2.17;;;9.50;99.90;;;;;;5050928;28;20251;-57
2023/02/02 11:30:31;;;;;;;8.27;2.20;;;9.50;99.90;;;;;;5050513;28;20237;-57
2023/02/02 11:32:58;;;;;;;6.53;2.07;;;9.50;99.90;;;;;;5050958;28;20232;-56
2023/02/02 11:35:28;;;;;;;7.07;2.33;;;9.50;99.90;;;;;;5050954;28;20255;-58
2023/02/02 11:38:00;;;;;;;7.40;2.30;;;9.50;99.90;;;;;;5050479;28;20610;-56
2023/02/02 11:40:32;;;;;;;6.80;2.17;;;9.50;99.90;;;;;;5050744;28;20229;-56
2023/02/02 11:43:02;;;;;;;10.47;4.13;;;9.40;99.90;;;;;;5050423;28;20592;-57
2023/02/02 11:45:34;;;;;;;7.50;4.10;;;9.40;99.90;;;;;;5050602;28;20259;-57
2023/02/02 11:48:04;;;;;;;8.20;2.77;;;9.50;99.90;;;;;;5050671;28;20205;-57
2023/02/02 11:50:31;;;;;;;6.30;2.40;;;9.40;99.90;;;;;;5050665;28;20236;-57
2023/02/02 11:52:59;;;;;;;7.50;2.40;;;9.50;99.90;;;;;;5050693;28;20575;-57
2023/02/02 11:55:28;;;;;;;7.20;2.97;;;9.50;99.90;;;;;;5050727;28;20213;-56
2023/02/02 11:58:29;;;;;;;7.63;2.17;;;9.40;99.90;;;;;;5050453;28;20210;-56
2023/02/02 12:00:59;;;;;;;5.03;1.90;;;9.40;99.90;;;;;;4969365;28;20231;-57
2023/02/02 12:03:30;;;;;;;5.70;2.00;;;9.20;99.90;;;;;;5035226;28;20225;-57
2023/02/02 12:05:57;;;;;;;9.37;2.07;;;9.30;99.90;;;;;;5050491;28;20218;-59
2023/02/02 12:08:25;;;;;;;5.80;1.73;;;9.30;99.90;;;;;;5050701;28;20205;-56
2023/02/02 12:10:58;;;;;;;3.37;1.60;;;9.30;99.90;;;;;;5050672;28;20232;-57
2023/02/02 12:13:45;;;;;;;3.50;1.63;;;9.40;99.90;;;;;;5050584;28;20209;-57
2023/02/02 12:16:24;;;;;;;6.47;2.60;;;9.30;99.90;;;;;;5047414;28;20210;-57
2023/02/02 12:19:13;;;;;;;6.40;2.10;;;9.30;99.90;;;;;;5050401;28;20331;-58
2023/02/02 12:21:48;;;;;;;7.07;2.10;;;9.30;99.90;;;;;;5051106;28;20726;-57
2023/02/02 12:24:35;;;;;;;6.90;2.17;;;9.30;99.90;;;;;;5050820;28;20665;-57
2023/02/02 12:27:18;;;;;;;4.80;1.80;;;9.30;99.90;;;;;;5050545;28;20264;-57
2023/02/02 12:30:01;;;;;;;7.20;2.20;;;9.20;99.90;;;;;;5050201;28;20234;-57
2023/02/02 12:32:48;;;;;;;3.83;1.90;;;9.20;99.90;;;;;;5050353;28;20251;-57
2023/02/02 12:35:32;;;;;;;6.50;2.70;;;9.20;99.90;;;;;;5050258;28;20549;-57
2023/02/02 12:38:10;;;;;;;6.77;1.87;;;9.10;99.90;;;;;;5050119;28;20205;-57
2023/02/02 12:41:10;;;;;;;6.03;2.07;;;9.20;99.90;;;;;;5050361;28;20225;-57
2023/02/02 12:43:41;;;;;;;5.77;1.97;;;9.10;99.90;;;;;;5047573;28;20282;-54
2023/02/02 12:46:21;;;;;;;5.00;2.27;;;9.10;99.90;;;;;;5052237;28;20255;-58
2023/02/02 12:49:03;;;;;;;8.40;2.20;;;9.10;99.90;;;;;;5053699;28;20590;-56
2023/02/02 12:51:45;;;;;;;5.80;2.00;;;9.00;99.90;;;;;;5053515;28;20232;-56
2023/02/02 12:54:30;;;;;;;8.57;2.17;;;8.90;99.90;;;;;;5054012;28;20210;-56
2023/02/02 12:57:02;;;;;;;5.90;2.10;;;8.80;99.90;;;;;;5053607;28;20220;-56
2023/02/02 12:59:51;;;;;;;8.60;2.10;;;8.80;99.90;;;;;;5053705;28;20293;-56
2023/02/02 13:02:28;;;;;;;5.50;2.10;;;8.80;99.90;;;;;;5053774;28;20225;-56
2023/02/02 13:05:08;;;;;;;5.73;1.80;;;8.80;99.90;;;;;;5053772;28;20202;-57
2023/02/02 13:07:39;;;;;;;13.17;2.50;;;8.80;99.90;;;;;;5053555;28;20216;-56
2023/02/02 13:10:17;;;;;;;7.47;2.17;;;8.80;99.90;;;;;;5053563;28;20240;-56
2023/02/02 13:12:51;;;;;;;8.60;3.00;;;8.90;99.90;;;;;;5053963;28;20259;-57
2023/02/02 13:15:21;;;;;;;8.30;2.17;;;9.00;99.90;;;;;;5053446;28;20202;-56
2023/02/02 13:17:51;;;;;;;7.97;2.33;;;8.90;99.90;;;;;;5053534;28;20309;-57
2023/02/02 13:20:28;;;;;;;7.27;2.67;;;9.00;99.90;;;;;;5053160;28;20267;-56
2023/02/02 13:22:58;;;;;;;9.30;2.50;;;8.90;99.90;;;;;;5053240;28;20270;-57